sensor_id;sensor_type;location;lat;lon;timestamp;pressure;altitude;pressure_sealevel;temperature;humidity
44351;BME280;62766;62.622;17.912;2023-06-10T00:00:05;102539.55;;;8.66;58.44
44351;BME280;62766;62.622;17.912;2023-06-10T00:02:33;102542.54;;;8.58;58.42
44351;BME280;62766;62.622;17.912;2023-06-10T00:05:02;102543.63;;;8.79;58.20
44351;BME280;62766;62.622;17.912;2023-06-10T00:07:32;102544.47;;;8.72;58.11
44351;BME280;62766;62.622;17.912;2023-06-10T00:10:00;102546.83;;;8.74;58.52
44351;BME280;62766;62.622;17.912;2023-06-10T00:12:28;102545.04;;;8.87;58.73
44351;BME280;62766;62.622;17.912;2023-06-10T00:14:57;102545.47;;;8.88;58.47
44351;BME280;62766;62.622;17.912;2023-06-10T00:17:25;102547.73;;;8.72;58.32
44351;BME280;62766;62.622;17.912;2023-06-10T00:19:53;102548.88;;;8.79;58.86
44351;BME280;62766;62.622;17.912;2023-06-10T00:22:22;102545.17;;;8.85;58.71
44351;BME280;62766;62.622;17.912;2023-06-10T00:24:50;102546.86;;;8.95;58.55
44351;BME280;62766;62.622;17.912;2023-06-10T00:27:18;102546.20;;;8.95;58.44
44351;BME280;62766;62.622;17.912;2023-06-10T00:29:47;102545.66;;;8.83;58.55
44351;BME280;62766;62.622;17.912;2023-06-10T00:32:15;102545.70;;;9.00;58.67
44351;BME280;62766;62.622;17.912;2023-06-10T00:34:43;102546.17;;;8.86;58.93
44351;BME280;62766;62.622;17.912;2023-06-10T00:37:11;102543.27;;;8.91;58.97
44351;BME280;62766;62.622;17.912;2023-06-10T00:39:40;102541.60;;;8.84;59.00
44351;BME280;62766;62.622;17.912;2023-06-10T00:42:08;102548.82;;;8.85;58.86
44351;BME280;62766;62.622;17.912;2023-06-10T00:44:36;102557.32;;;8.87;58.96
44351;BME280;62766;62.622;17.912;2023-06-10T00:47:06;102557.82;;;8.94;59.04
44351;BME280;62766;62.622;17.912;2023-06-10T00:49:35;102557.65;;;8.94;58.83
44351;BME280;62766;62.622;17.912;2023-06-10T00:52:05;102555.00;;;8.99;59.11
44351;BME280;62766;62.622;17.912;2023-06-10T00:54:35;102554.66;;;9.07;59.12
44351;BME280;62766;62.622;17.912;2023-06-10T00:57:05;102557.78;;;9.04;59.24
44351;BME280;62766;62.622;17.912;2023-06-10T00:59:33;102565.98;;;9.00;60.48
44351;BME280;62766;62.622;17.912;2023-06-10T01:02:04;102565.67;;;9.03;60.30
44351;BME280;62766;62.622;17.912;2023-06-10T01:04:33;102566.77;;;9.24;60.73
44351;BME280;62766;62.622;17.912;2023-06-10T01:07:07;102566.96;;;9.28;61.12
44351;BME280;62766;62.622;17.912;2023-06-10T01:09:45;102569.89;;;9.24;61.22
44351;BME280;62766;62.622;17.912;2023-06-10T01:12:22;102571.05;;;9.34;61.30
44351;BME280;62766;62.622;17.912;2023-06-10T01:14:53;102566.18;;;9.23;61.46
44351;BME280;62766;62.622;17.912;2023-06-10T01:17:23;102572.66;;;9.33;61.53
44351;BME280;62766;62.622;17.912;2023-06-10T01:19:54;102575.46;;;9.34;61.82
44351;BME280;62766;62.622;17.912;2023-06-10T01:22:23;102570.14;;;9.50;62.44
44351;BME280;62766;62.622;17.912;2023-06-10T01:24:53;102570.50;;;9.57;62.86
44351;BME280;62766;62.622;17.912;2023-06-10T01:27:22;102570.73;;;9.59;63.70
44351;BME280;62766;62.622;17.912;2023-06-10T01:29:56;102574.00;;;9.49;63.60
44351;BME280;62766;62.622;17.912;2023-06-10T01:32:31;102575.70;;;9.55;63.14
44351;BME280;62766;62.622;17.912;2023-06-10T01:35:02;102577.49;;;9.70;62.29
44351;BME280;62766;62.622;17.912;2023-06-10T01:37:33;102575.86;;;9.70;61.10
44351;BME280;62766;62.622;17.912;2023-06-10T01:40:02;102574.83;;;9.51;60.75
44351;BME280;62766;62.622;17.912;2023-06-10T01:42:32;102575.94;;;9.50;60.63
44351;BME280;62766;62.622;17.912;2023-06-10T01:45:02;102575.10;;;9.41;60.54
44351;BME280;62766;62.622;17.912;2023-06-10T01:47:30;102577.07;;;9.29;60.53
44351;BME280;62766;62.622;17.912;2023-06-10T01:49:58;102583.32;;;9.27;60.95
44351;BME280;62766;62.622;17.912;2023-06-10T01:52:26;102591.80;;;9.30;61.16
44351;BME280;62766;62.622;17.912;2023-06-10T01:54:55;102595.75;;;9.23;61.36
44351;BME280;62766;62.622;17.912;2023-06-10T01:57:23;102592.15;;;9.28;61.61
44351;BME280;62766;62.622;17.912;2023-06-10T01:59:51;102589.06;;;9.17;61.74
44351;BME280;62766;62.622;17.912;2023-06-10T02:02:19;102585.43;;;9.34;62.10
44351;BME280;62766;62.622;17.912;2023-06-10T02:04:48;102585.45;;;9.35;63.19
44351;BME280;62766;62.622;17.912;2023-06-10T02:07:16;102579.63;;;9.34;62.95
44351;BME280;62766;62.622;17.912;2023-06-10T02:09:44;102583.20;;;9.56;63.32
44351;BME280;62766;62.622;17.912;2023-06-10T02:12:13;102589.58;;;9.58;63.58
44351;BME280;62766;62.622;17.912;2023-06-10T02:14:41;102592.40;;;9.74;64.04
44351;BME280;62766;62.622;17.912;2023-06-10T02:17:09;102591.84;;;9.71;63.78
44351;BME280;62766;62.622;17.912;2023-06-10T02:19:38;102592.12;;;9.82;63.30
44351;BME280;62766;62.622;17.912;2023-06-10T02:22:06;102591.17;;;9.89;63.31
44351;BME280;62766;62.622;17.912;2023-06-10T02:24:36;102591.02;;;9.75;63.82
44351;BME280;62766;62.622;17.912;2023-06-10T02:27:05;102591.50;;;9.95;64.32
44351;BME280;62766;62.622;17.912;2023-06-10T02:29:34;102592.18;;;9.98;64.88
44351;BME280;62766;62.622;17.912;2023-06-10T02:32:03;102593.40;;;9.93;64.77
44351;BME280;62766;62.622;17.912;2023-06-10T02:34:32;102595.56;;;9.95;64.81
44351;BME280;62766;62.622;17.912;2023-06-10T02:37:01;102598.42;;;10.01;64.37
44351;BME280;62766;62.622;17.912;2023-06-10T02:39:29;102596.46;;;10.19;64.35
44351;BME280;62766;62.622;17.912;2023-06-10T02:41:57;102595.71;;;10.21;64.12
44351;BME280;62766;62.622;17.912;2023-06-10T02:44:26;102597.71;;;10.30;63.93
44351;BME280;62766;62.622;17.912;2023-06-10T02:46:54;102592.98;;;10.21;63.76
44351;BME280;62766;62.622;17.912;2023-06-10T02:49:22;102598.12;;;10.30;63.51
44351;BME280;62766;62.622;17.912;2023-06-10T02:51:50;102596.96;;;10.44;63.30
44351;BME280;62766;62.622;17.912;2023-06-10T02:54:19;102598.82;;;10.44;63.20
44351;BME280;62766;62.622;17.912;2023-06-10T02:56:47;102601.38;;;10.60;63.05
44351;BME280;62766;62.622;17.912;2023-06-10T02:59:15;102604.33;;;10.70;62.97
44351;BME280;62766;62.622;17.912;2023-06-10T03:01:43;102606.79;;;10.67;62.86
44351;BME280;62766;62.622;17.912;2023-06-10T03:04:12;102607.11;;;10.75;62.54
44351;BME280;62766;62.622;17.912;2023-06-10T03:06:40;102609.41;;;10.92;62.22
44351;BME280;62766;62.622;17.912;2023-06-10T03:09:09;102608.65;;;10.94;61.82
44351;BME280;62766;62.622;17.912;2023-06-10T03:11:38;102601.99;;;10.95;61.49
44351;BME280;62766;62.622;17.912;2023-06-10T03:14:06;102600.30;;;11.11;61.34
44351;BME280;62766;62.622;17.912;2023-06-10T03:16:35;102598.15;;;11.05;61.28
44351;BME280;62766;62.622;17.912;2023-06-10T03:19:03;102594.90;;;11.20;60.87
44351;BME280;62766;62.622;17.912;2023-06-10T03:21:33;102590.53;;;11.16;59.91
44351;BME280;62766;62.622;17.912;2023-06-10T03:24:01;102588.60;;;11.36;59.56
44351;BME280;62766;62.622;17.912;2023-06-10T03:26:29;102592.17;;;11.32;59.12
44351;BME280;62766;62.622;17.912;2023-06-10T03:28:58;102591.33;;;11.43;58.92
44351;BME280;62766;62.622;17.912;2023-06-10T03:31:26;102592.08;;;11.60;58.76
44351;BME280;62766;62.622;17.912;2023-06-10T03:33:54;102589.60;;;11.63;58.98
44351;BME280;62766;62.622;17.912;2023-06-10T03:36:22;102584.19;;;11.82;59.05
44351;BME280;62766;62.622;17.912;2023-06-10T03:38:51;102588.96;;;11.66;59.36
44351;BME280;62766;62.622;17.912;2023-06-10T03:41:19;102588.11;;;11.74;59.90
44351;BME280;62766;62.622;17.912;2023-06-10T03:43:47;102584.98;;;11.72;59.36
44351;BME280;62766;62.622;17.912;2023-06-10T03:46:15;102591.15;;;11.72;59.44
44351;BME280;62766;62.622;17.912;2023-06-10T03:48:44;102590.20;;;11.73;58.53
44351;BME280;62766;62.622;17.912;2023-06-10T03:51:12;102594.44;;;11.86;58.23
44351;BME280;62766;62.622;17.912;2023-06-10T03:53:40;102591.24;;;11.74;58.09
44351;BME280;62766;62.622;17.912;2023-06-10T03:56:08;102591.33;;;11.88;58.25
44351;BME280;62766;62.622;17.912;2023-06-10T03:58:36;102592.34;;;11.72;58.12
44351;BME280;62766;62.622;17.912;2023-06-10T04:03:30;102586.84;;;11.69;57.04
44351;BME280;62766;62.622;17.912;2023-06-10T04:05:58;102585.70;;;11.89;57.09
44351;BME280;62766;62.622;17.912;2023-06-10T04:08:27;102587.55;;;11.91;56.88
44351;BME280;62766;62.622;17.912;2023-06-10T04:10:55;102589.05;;;12.04;55.99
44351;BME280;62766;62.622;17.912;2023-06-10T04:13:23;102586.69;;;11.93;55.31
44351;BME280;62766;62.622;17.912;2023-06-10T04:15:51;102587.47;;;11.83;54.66
44351;BME280;62766;62.622;17.912;2023-06-10T04:18:20;102586.81;;;11.89;53.97
44351;BME280;62766;62.622;17.912;2023-06-10T04:20:48;102589.81;;;11.92;53.63
44351;BME280;62766;62.622;17.912;2023-06-10T04:23:16;102587.21;;;12.00;52.75
44351;BME280;62766;62.622;17.912;2023-06-10T04:25:44;102584.33;;;11.97;52.61
44351;BME280;62766;62.622;17.912;2023-06-10T04:28:13;102580.89;;;11.95;52.83
44351;BME280;62766;62.622;17.912;2023-06-10T04:30:41;102580.57;;;11.99;52.57
44351;BME280;62766;62.622;17.912;2023-06-10T04:33:09;102578.13;;;12.10;52.23
44351;BME280;62766;62.622;17.912;2023-06-10T04:35:37;102578.18;;;12.13;52.39
44351;BME280;62766;62.622;17.912;2023-06-10T04:38:05;102575.53;;;12.34;51.67
44351;BME280;62766;62.622;17.912;2023-06-10T04:40:34;102577.38;;;12.20;51.35
44351;BME280;62766;62.622;17.912;2023-06-10T04:43:03;102576.68;;;12.31;51.00
44351;BME280;62766;62.622;17.912;2023-06-10T04:45:32;102577.86;;;12.32;51.11
44351;BME280;62766;62.622;17.912;2023-06-10T04:48:00;102579.40;;;12.38;51.20
44351;BME280;62766;62.622;17.912;2023-06-10T04:50:28;102578.21;;;12.46;50.97
44351;BME280;62766;62.622;17.912;2023-06-10T04:52:56;102577.97;;;12.65;50.89
44351;BME280;62766;62.622;17.912;2023-06-10T04:55:25;102578.00;;;12.72;50.47
44351;BME280;62766;62.622;17.912;2023-06-10T04:57:53;102576.91;;;12.75;49.90
44351;BME280;62766;62.622;17.912;2023-06-10T05:00:21;102572.37;;;12.79;48.68
44351;BME280;62766;62.622;17.912;2023-06-10T05:02:49;102575.08;;;12.77;48.68
44351;BME280;62766;62.622;17.912;2023-06-10T05:05:18;102574.77;;;12.84;48.99
44351;BME280;62766;62.622;17.912;2023-06-10T05:07:47;102571.49;;;12.91;48.63
44351;BME280;62766;62.622;17.912;2023-06-10T05:10:16;102567.35;;;12.91;48.81
44351;BME280;62766;62.622;17.912;2023-06-10T05:12:45;102561.91;;;12.96;48.40
44351;BME280;62766;62.622;17.912;2023-06-10T05:15:14;102560.41;;;13.19;48.95
44351;BME280;62766;62.622;17.912;2023-06-10T05:17:42;102561.64;;;13.26;48.04
44351;BME280;62766;62.622;17.912;2023-06-10T05:20:11;102562.14;;;13.30;47.42
44351;BME280;62766;62.622;17.912;2023-06-10T05:22:40;102560.40;;;13.31;46.87
44351;BME280;62766;62.622;17.912;2023-06-10T05:25:08;102559.20;;;13.41;47.84
44351;BME280;62766;62.622;17.912;2023-06-10T05:27:37;102556.13;;;13.51;47.91
44351;BME280;62766;62.622;17.912;2023-06-10T05:30:06;102554.24;;;13.54;47.03
44351;BME280;62766;62.622;17.912;2023-06-10T05:32:35;102556.84;;;13.52;46.14
44351;BME280;62766;62.622;17.912;2023-06-10T05:35:04;102554.21;;;13.73;45.01
44351;BME280;62766;62.622;17.912;2023-06-10T05:37:33;102553.89;;;13.51;45.07
44351;BME280;62766;62.622;17.912;2023-06-10T05:40:02;102555.79;;;13.35;45.36
44351;BME280;62766;62.622;17.912;2023-06-10T05:42:31;102555.89;;;13.12;45.25
44351;BME280;62766;62.622;17.912;2023-06-10T05:44:59;102555.46;;;13.29;45.24
44351;BME280;62766;62.622;17.912;2023-06-10T05:47:28;102552.77;;;13.25;46.00
44351;BME280;62766;62.622;17.912;2023-06-10T05:49:56;102553.71;;;13.30;45.80
44351;BME280;62766;62.622;17.912;2023-06-10T05:52:24;102555.36;;;13.44;45.76
44351;BME280;62766;62.622;17.912;2023-06-10T05:54:52;102558.92;;;13.51;46.22
44351;BME280;62766;62.622;17.912;2023-06-10T05:57:20;102558.93;;;13.72;45.99
44351;BME280;62766;62.622;17.912;2023-06-10T05:59:49;102558.00;;;13.75;46.04
44351;BME280;62766;62.622;17.912;2023-06-10T06:02:17;102564.90;;;13.65;46.30
44351;BME280;62766;62.622;17.912;2023-06-10T06:04:45;102565.55;;;13.60;46.84
44351;BME280;62766;62.622;17.912;2023-06-10T06:07:13;102567.01;;;13.34;45.28
44351;BME280;62766;62.622;17.912;2023-06-10T06:09:41;102567.99;;;13.24;44.99
44351;BME280;62766;62.622;17.912;2023-06-10T06:12:10;102562.96;;;13.08;44.17
44351;BME280;62766;62.622;17.912;2023-06-10T06:14:38;102564.70;;;13.29;44.58
44351;BME280;62766;62.622;17.912;2023-06-10T06:17:08;102563.43;;;13.20;44.11
44351;BME280;62766;62.622;17.912;2023-06-10T06:19:36;102558.97;;;13.39;44.51
44351;BME280;62766;62.622;17.912;2023-06-10T06:22:04;102560.17;;;13.54;46.10
44351;BME280;62766;62.622;17.912;2023-06-10T06:24:32;102556.66;;;13.46;46.02
44351;BME280;62766;62.622;17.912;2023-06-10T06:27:01;102556.40;;;13.42;45.96
44351;BME280;62766;62.622;17.912;2023-06-10T06:29:29;102555.34;;;13.61;45.88
44351;BME280;62766;62.622;17.912;2023-06-10T06:31:57;102554.57;;;13.74;45.29
44351;BME280;62766;62.622;17.912;2023-06-10T06:34:25;102555.52;;;13.84;44.38
44351;BME280;62766;62.622;17.912;2023-06-10T06:36:53;102554.94;;;13.77;44.24
44351;BME280;62766;62.622;17.912;2023-06-10T06:39:21;102556.21;;;13.91;44.36
44351;BME280;62766;62.622;17.912;2023-06-10T06:41:50;102556.67;;;14.07;43.97
44351;BME280;62766;62.622;17.912;2023-06-10T06:44:18;102558.13;;;14.20;43.30
44351;BME280;62766;62.622;17.912;2023-06-10T06:46:46;102560.34;;;14.09;42.02
44351;BME280;62766;62.622;17.912;2023-06-10T06:49:14;102558.82;;;14.01;42.07
44351;BME280;62766;62.622;17.912;2023-06-10T06:51:42;102559.14;;;13.77;42.10
44351;BME280;62766;62.622;17.912;2023-06-10T06:54:11;102558.85;;;13.76;41.75
44351;BME280;62766;62.622;17.912;2023-06-10T06:56:39;102560.56;;;13.54;40.83
44351;BME280;62766;62.622;17.912;2023-06-10T06:59:07;102559.86;;;13.43;41.19
44351;BME280;62766;62.622;17.912;2023-06-10T07:01:35;102561.20;;;13.17;41.65
44351;BME280;62766;62.622;17.912;2023-06-10T07:04:04;102558.43;;;13.12;41.58
44351;BME280;62766;62.622;17.912;2023-06-10T07:06:34;102565.18;;;13.28;42.09
44351;BME280;62766;62.622;17.912;2023-06-10T07:09:02;102564.93;;;13.45;42.28
44351;BME280;62766;62.622;17.912;2023-06-10T07:11:32;102562.69;;;13.72;41.31
44351;BME280;62766;62.622;17.912;2023-06-10T07:14:00;102563.74;;;13.89;41.04
44351;BME280;62766;62.622;17.912;2023-06-10T07:16:28;102559.14;;;14.05;41.50
44351;BME280;62766;62.622;17.912;2023-06-10T07:18:56;102562.41;;;14.48;40.47
44351;BME280;62766;62.622;17.912;2023-06-10T07:21:24;102557.97;;;14.58;40.14
44351;BME280;62766;62.622;17.912;2023-06-10T07:23:53;102557.26;;;14.76;39.29
44351;BME280;62766;62.622;17.912;2023-06-10T07:26:22;102556.80;;;14.80;38.85
44351;BME280;62766;62.622;17.912;2023-06-10T07:28:50;102557.73;;;14.72;38.75
44351;BME280;62766;62.622;17.912;2023-06-10T07:31:18;102560.06;;;14.69;38.97
44351;BME280;62766;62.622;17.912;2023-06-10T07:33:46;102556.22;;;14.55;38.70
44351;BME280;62766;62.622;17.912;2023-06-10T07:36:14;102553.33;;;14.72;38.63
44351;BME280;62766;62.622;17.912;2023-06-10T07:38:42;102555.23;;;14.68;38.24
44351;BME280;62766;62.622;17.912;2023-06-10T07:41:11;102552.21;;;14.95;39.08
44351;BME280;62766;62.622;17.912;2023-06-10T07:43:39;102549.00;;;15.24;40.58
44351;BME280;62766;62.622;17.912;2023-06-10T07:46:07;102548.06;;;15.33;38.22
44351;BME280;62766;62.622;17.912;2023-06-10T07:48:35;102546.12;;;15.15;36.90
44351;BME280;62766;62.622;17.912;2023-06-10T07:51:04;102550.68;;;15.34;37.92
44351;BME280;62766;62.622;17.912;2023-06-10T07:53:33;102548.89;;;15.28;37.21
44351;BME280;62766;62.622;17.912;2023-06-10T07:56:02;102549.74;;;14.95;36.27
44351;BME280;62766;62.622;17.912;2023-06-10T07:58:31;102555.13;;;14.81;36.71
44351;BME280;62766;62.622;17.912;2023-06-10T08:01:00;102559.60;;;14.67;37.11
44351;BME280;62766;62.622;17.912;2023-06-10T08:03:28;102559.64;;;14.81;38.37
44351;BME280;62766;62.622;17.912;2023-06-10T08:05:56;102558.65;;;14.68;37.98
44351;BME280;62766;62.622;17.912;2023-06-10T08:08:24;102558.44;;;14.59;37.67
44351;BME280;62766;62.622;17.912;2023-06-10T08:10:52;102562.94;;;14.55;37.40
44351;BME280;62766;62.622;17.912;2023-06-10T08:13:20;102560.54;;;14.97;37.88
44351;BME280;62766;62.622;17.912;2023-06-10T08:15:49;102562.29;;;15.04;36.47
44351;BME280;62766;62.622;17.912;2023-06-10T08:18:17;102565.44;;;15.16;35.90
44351;BME280;62766;62.622;17.912;2023-06-10T08:20:45;102562.08;;;15.57;35.98
44351;BME280;62766;62.622;17.912;2023-06-10T08:23:14;102563.32;;;15.54;35.18
44351;BME280;62766;62.622;17.912;2023-06-10T08:25:42;102559.73;;;15.66;34.98
44351;BME280;62766;62.622;17.912;2023-06-10T08:28:10;102562.50;;;15.79;35.92
44351;BME280;62766;62.622;17.912;2023-06-10T08:30:38;102559.01;;;15.91;35.18
44351;BME280;62766;62.622;17.912;2023-06-10T08:33:06;102554.34;;;15.86;34.82
44351;BME280;62766;62.622;17.912;2023-06-10T08:35:34;102558.34;;;15.92;34.34
44351;BME280;62766;62.622;17.912;2023-06-10T08:38:03;102562.44;;;16.02;34.68
44351;BME280;62766;62.622;17.912;2023-06-10T08:40:33;102565.13;;;16.20;34.37
44351;BME280;62766;62.622;17.912;2023-06-10T08:43:06;102562.59;;;16.26;35.07
44351;BME280;62766;62.622;17.912;2023-06-10T08:45:36;102563.33;;;16.18;33.08
44351;BME280;62766;62.622;17.912;2023-06-10T08:48:05;102557.09;;;16.17;33.25
44351;BME280;62766;62.622;17.912;2023-06-10T08:50:35;102556.42;;;16.00;34.24
44351;BME280;62766;62.622;17.912;2023-06-10T08:53:05;102554.06;;;16.05;34.13
44351;BME280;62766;62.622;17.912;2023-06-10T08:55:36;102554.34;;;16.04;34.75
44351;BME280;62766;62.622;17.912;2023-06-10T08:58:05;102552.09;;;16.12;34.05
44351;BME280;62766;62.622;17.912;2023-06-10T09:00:34;102554.17;;;16.02;33.91
44351;BME280;62766;62.622;17.912;2023-06-10T09:03:05;102550.35;;;16.01;34.15
44351;BME280;62766;62.622;17.912;2023-06-10T09:05:34;102552.04;;;15.86;34.78
44351;BME280;62766;62.622;17.912;2023-06-10T09:08:05;102547.48;;;16.12;35.25
44351;BME280;62766;62.622;17.912;2023-06-10T09:10:34;102545.28;;;16.06;35.19
44351;BME280;62766;62.622;17.912;2023-06-10T09:13:02;102544.16;;;16.02;35.02
44351;BME280;62766;62.622;17.912;2023-06-10T09:15:31;102543.32;;;16.02;34.97
44351;BME280;62766;62.622;17.912;2023-06-10T09:18:00;102543.54;;;15.97;34.63
44351;BME280;62766;62.622;17.912;2023-06-10T09:20:28;102545.45;;;15.95;34.74
44351;BME280;62766;62.622;17.912;2023-06-10T09:22:56;102547.54;;;15.98;34.28
44351;BME280;62766;62.622;17.912;2023-06-10T09:25:35;102549.62;;;16.03;34.53
44351;BME280;62766;62.622;17.912;2023-06-10T09:28:13;102547.03;;;16.04;35.31
44351;BME280;62766;62.622;17.912;2023-06-10T09:30:41;102542.47;;;16.01;34.67
44351;BME280;62766;62.622;17.912;2023-06-10T09:33:11;102538.98;;;15.95;34.91
44351;BME280;62766;62.622;17.912;2023-06-10T09:35:45;102538.58;;;16.04;34.30
44351;BME280;62766;62.622;17.912;2023-06-10T09:38:18;102541.22;;;16.12;34.42
44351;BME280;62766;62.622;17.912;2023-06-10T09:40:49;102535.41;;;16.24;33.76
44351;BME280;62766;62.622;17.912;2023-06-10T09:43:18;102532.30;;;16.31;34.01
44351;BME280;62766;62.622;17.912;2023-06-10T09:45:47;102538.71;;;16.28;34.35
44351;BME280;62766;62.622;17.912;2023-06-10T09:48:16;102533.93;;;16.24;34.12
44351;BME280;62766;62.622;17.912;2023-06-10T09:50:45;102534.12;;;16.50;34.39
44351;BME280;62766;62.622;17.912;2023-06-10T09:53:14;102535.52;;;16.44;34.45
44351;BME280;62766;62.622;17.912;2023-06-10T09:55:46;102529.67;;;16.52;34.75
44351;BME280;62766;62.622;17.912;2023-06-10T09:58:14;102535.59;;;16.34;35.16
44351;BME280;62766;62.622;17.912;2023-06-10T10:03:22;102544.32;;;16.37;34.99
44351;BME280;62766;62.622;17.912;2023-06-10T10:05:58;102544.16;;;16.43;35.19
44351;BME280;62766;62.622;17.912;2023-06-10T10:08:27;102547.15;;;16.35;35.26
44351;BME280;62766;62.622;17.912;2023-06-10T10:10:57;102540.68;;;16.53;34.90
44351;BME280;62766;62.622;17.912;2023-06-10T10:13:27;102538.19;;;16.37;35.40
44351;BME280;62766;62.622;17.912;2023-06-10T10:15:58;102536.49;;;16.44;35.16
44351;BME280;62766;62.622;17.912;2023-06-10T10:18:29;102529.84;;;16.58;35.33
44351;BME280;62766;62.622;17.912;2023-06-10T10:21:04;102521.92;;;16.67;35.72
44351;BME280;62766;62.622;17.912;2023-06-10T10:23:38;102519.02;;;16.68;35.01
44351;BME280;62766;62.622;17.912;2023-06-10T10:26:10;102516.89;;;16.76;35.47
44351;BME280;62766;62.622;17.912;2023-06-10T10:28:45;102513.66;;;16.91;34.74
44351;BME280;62766;62.622;17.912;2023-06-10T10:31:18;102511.54;;;16.87;34.61
44351;BME280;62766;62.622;17.912;2023-06-10T10:33:54;102504.79;;;16.80;34.29
44351;BME280;62766;62.622;17.912;2023-06-10T10:36:24;102502.73;;;16.86;34.58
44351;BME280;62766;62.622;17.912;2023-06-10T10:38:52;102494.44;;;17.02;34.40
44351;BME280;62766;62.622;17.912;2023-06-10T10:41:23;102494.55;;;17.01;33.86
44351;BME280;62766;62.622;17.912;2023-06-10T10:43:52;102492.68;;;16.97;33.61
44351;BME280;62766;62.622;17.912;2023-06-10T10:46:20;102489.12;;;16.82;33.93
44351;BME280;62766;62.622;17.912;2023-06-10T10:48:52;102484.86;;;16.73;34.20
44351;BME280;62766;62.622;17.912;2023-06-10T10:51:22;102481.49;;;16.84;34.19
44351;BME280;62766;62.622;17.912;2023-06-10T10:54:28;102490.32;;;16.69;33.04
44351;BME280;62766;62.622;17.912;2023-06-10T10:57:15;102492.15;;;16.56;33.81
44351;BME280;62766;62.622;17.912;2023-06-10T10:59:51;102486.59;;;16.53;33.63
44351;BME280;62766;62.622;17.912;2023-06-10T11:02:35;102485.90;;;16.66;34.38
44351;BME280;62766;62.622;17.912;2023-06-10T11:05:05;102487.89;;;16.71;34.70
44351;BME280;62766;62.622;17.912;2023-06-10T11:07:34;102485.46;;;16.64;34.11
44351;BME280;62766;62.622;17.912;2023-06-10T11:10:07;102484.97;;;16.64;34.59
44351;BME280;62766;62.622;17.912;2023-06-10T11:12:41;102486.41;;;16.61;34.31
44351;BME280;62766;62.622;17.912;2023-06-10T11:15:09;102487.73;;;16.84;34.84
44351;BME280;62766;62.622;17.912;2023-06-10T11:17:37;102479.60;;;16.88;34.02
44351;BME280;62766;62.622;17.912;2023-06-10T11:20:06;102478.09;;;16.93;33.13
44351;BME280;62766;62.622;17.912;2023-06-10T11:22:58;102480.48;;;17.04;32.65
44351;BME280;62766;62.622;17.912;2023-06-10T11:25:38;102479.15;;;17.00;32.30
44351;BME280;62766;62.622;17.912;2023-06-10T11:28:17;102480.27;;;16.95;32.58
44351;BME280;62766;62.622;17.912;2023-06-10T11:30:57;102485.67;;;17.02;32.54
44351;BME280;62766;62.622;17.912;2023-06-10T11:33:25;102487.26;;;17.11;32.21
44351;BME280;62766;62.622;17.912;2023-06-10T11:35:54;102484.85;;;17.12;32.32
44351;BME280;62766;62.622;17.912;2023-06-10T11:38:22;102484.11;;;17.00;32.47
44351;BME280;62766;62.622;17.912;2023-06-10T11:40:50;102481.16;;;17.08;32.97
44351;BME280;62766;62.622;17.912;2023-06-10T11:43:18;102480.20;;;17.09;32.63
44351;BME280;62766;62.622;17.912;2023-06-10T11:45:46;102484.38;;;17.31;33.39
44351;BME280;62766;62.622;17.912;2023-06-10T11:48:15;102483.56;;;17.31;33.09
44351;BME280;62766;62.622;17.912;2023-06-10T11:50:44;102481.72;;;17.37;32.67
44351;BME280;62766;62.622;17.912;2023-06-10T11:53:13;102478.18;;;17.58;33.96
44351;BME280;62766;62.622;17.912;2023-06-10T11:55:44;102478.01;;;17.63;33.08
44351;BME280;62766;62.622;17.912;2023-06-10T11:58:14;102476.47;;;17.54;33.00
44351;BME280;62766;62.622;17.912;2023-06-10T12:00:44;102470.59;;;17.76;32.75
44351;BME280;62766;62.622;17.912;2023-06-10T12:03:15;102472.45;;;17.67;32.32
44351;BME280;62766;62.622;17.912;2023-06-10T12:06:00;102469.09;;;17.54;32.35
44351;BME280;62766;62.622;17.912;2023-06-10T12:08:30;102465.62;;;17.42;32.10
44351;BME280;62766;62.622;17.912;2023-06-10T12:10:58;102467.57;;;17.46;33.18
44351;BME280;62766;62.622;17.912;2023-06-10T12:13:27;102467.09;;;17.63;33.44
44351;BME280;62766;62.622;17.912;2023-06-10T12:16:06;102461.18;;;17.76;32.29
44351;BME280;62766;62.622;17.912;2023-06-10T12:18:34;102461.74;;;17.67;31.99
44351;BME280;62766;62.622;17.912;2023-06-10T12:21:02;102470.40;;;17.60;31.07
44351;BME280;62766;62.622;17.912;2023-06-10T12:23:31;102457.52;;;17.55;31.85
44351;BME280;62766;62.622;17.912;2023-06-10T12:25:59;102458.05;;;17.47;32.03
44351;BME280;62766;62.622;17.912;2023-06-10T12:28:29;102462.99;;;17.39;32.31
44351;BME280;62766;62.622;17.912;2023-06-10T12:31:06;102459.39;;;17.34;32.83
44351;BME280;62766;62.622;17.912;2023-06-10T12:33:34;102457.98;;;17.59;33.11
44351;BME280;62766;62.622;17.912;2023-06-10T12:36:02;102456.58;;;17.50;33.10
44351;BME280;62766;62.622;17.912;2023-06-10T12:38:30;102451.13;;;17.30;33.79
44351;BME280;62766;62.622;17.912;2023-06-10T12:41:01;102453.71;;;17.55;33.86
44351;BME280;62766;62.622;17.912;2023-06-10T12:43:31;102453.57;;;17.66;34.13
44351;BME280;62766;62.622;17.912;2023-06-10T12:46:09;102455.66;;;17.91;33.32
44351;BME280;62766;62.622;17.912;2023-06-10T12:48:49;102455.34;;;17.93;33.21
44351;BME280;62766;62.622;17.912;2023-06-10T12:51:19;102445.91;;;18.07;33.81
44351;BME280;62766;62.622;17.912;2023-06-10T12:53:47;102443.17;;;18.29;33.89
44351;BME280;62766;62.622;17.912;2023-06-10T12:56:16;102440.47;;;18.39;32.67
44351;BME280;62766;62.622;17.912;2023-06-10T12:58:45;102437.31;;;18.34;32.82